createdAt,value
2023-03-16T00:00:57.655Z,84.65
2023-03-16T00:03:25.274Z,84.28
2023-03-16T00:05:54.946Z,84.81
2023-03-16T00:08:24.637Z,83.82
2023-03-16T00:10:54.168Z,84.07
2023-03-16T00:13:24.698Z,84.25
2023-03-16T00:15:53.081Z,84.56
2023-03-16T00:18:21.531Z,84.58
2023-03-16T00:20:52.727Z,85.43
2023-03-16T00:23:27.612Z,85.43
2023-03-16T00:25:58.673Z,85.86
2023-03-16T00:28:28.483Z,86.02
2023-03-16T00:30:58.898Z,85.91
2023-03-16T00:33:26.863Z,85.64
2023-03-16T00:36:02.083Z,85.66
2023-03-16T00:38:32.175Z,85.23
2023-03-16T00:41:03.661Z,84.85
2023-03-16T00:43:31.565Z,85.22
2023-03-16T00:46:01.202Z,84.98
2023-03-16T00:48:28.898Z,85.07
2023-03-16T00:50:56.564Z,85.00
2023-03-16T00:53:24.295Z,84.38
2023-03-16T00:55:53.311Z,85.22
2023-03-16T00:58:23.288Z,85.18
2023-03-16T01:00:51.299Z,84.97
2023-03-16T01:03:19.031Z,85.73
2023-03-16T01:05:46.731Z,85.83
2023-03-16T01:08:14.411Z,85.94
2023-03-16T01:10:42.159Z,86.64
2023-03-16T01:13:09.813Z,86.25
2023-03-16T01:15:38.874Z,86.04
2023-03-16T01:18:07.820Z,86.79
2023-03-16T01:20:35.551Z,86.43
2023-03-16T01:23:03.480Z,87.20
2023-03-16T01:25:32.434Z,87.11
2023-03-16T01:28:00.250Z,87.28
2023-03-16T01:30:28.431Z,87.60
2023-03-16T01:32:58.385Z,88.75
2023-03-16T01:35:26.037Z,88.38
2023-03-16T01:37:53.828Z,88.24
2023-03-16T01:40:22.095Z,88.49
2023-03-16T01:43:00.438Z,88.23
2023-03-16T01:46:10.578Z,88.37
2023-03-16T01:48:44.726Z,88.66
2023-03-16T01:51:21.088Z,88.36
2023-03-16T01:53:52.995Z,89.19
2023-03-16T01:56:25.917Z,89.00
2023-03-16T01:58:58.986Z,88.63
2023-03-16T02:01:28.223Z,88.42
2023-03-16T02:04:06.056Z,89.16
2023-03-16T02:06:35.257Z,88.49
2023-03-16T02:09:03.918Z,88.87
2023-03-16T02:11:32.207Z,88.75
2023-03-16T02:14:07.338Z,89.19
2023-03-16T02:16:35.183Z,89.90
2023-03-16T02:19:07.629Z,89.97
2023-03-16T02:21:42.741Z,90.19
2023-03-16T02:24:11.068Z,90.02
2023-03-16T02:26:47.544Z,90.60
2023-03-16T02:29:25.564Z,90.20
2023-03-16T02:31:56.313Z,90.08
2023-03-16T02:34:24.721Z,90.11
2023-03-16T02:36:53.880Z,90.79
2023-03-16T02:39:21.494Z,91.02
2023-03-16T02:41:49.245Z,90.50
2023-03-16T02:44:24.066Z,90.61
2023-03-16T02:46:56.870Z,90.80
2023-03-16T02:49:28.073Z,90.70
2023-03-16T02:51:57.451Z,90.47
2023-03-16T02:54:25.358Z,90.81
2023-03-16T02:56:53.028Z,89.87
2023-03-16T02:59:20.699Z,89.75
2023-03-16T03:01:48.327Z,90.02
2023-03-16T03:04:17.553Z,90.21
2023-03-16T03:06:45.574Z,90.37
2023-03-16T03:09:13.275Z,89.48
2023-03-16T03:11:41.691Z,89.26
2023-03-16T03:14:09.318Z,88.94
2023-03-16T03:16:37.153Z,89.16
2023-03-16T03:19:04.920Z,88.54
2023-03-16T03:21:34.182Z,87.84
2023-03-16T03:24:02.585Z,88.95
2023-03-16T03:26:30.254Z,88.71
2023-03-16T03:28:57.886Z,88.92
2023-03-16T03:31:25.540Z,88.68
2023-03-16T03:33:53.753Z,88.99
2023-03-16T03:36:22.146Z,89.33
2023-03-16T03:38:51.147Z,88.67
2023-03-16T03:41:18.747Z,89.42
2023-03-16T03:43:46.600Z,89.58
2023-03-16T03:46:14.536Z,89.44
2023-03-16T03:48:42.286Z,89.21
2023-03-16T03:51:10.350Z,89.51
2023-03-16T03:53:38.069Z,90.09
2023-03-16T03:56:07.994Z,89.79
2023-03-16T03:58:35.652Z,90.00
2023-03-16T04:01:03.303Z,89.92
2023-03-16T04:03:31.180Z,89.42
2023-03-16T04:05:58.887Z,89.01
2023-03-16T04:08:26.513Z,88.94
2023-03-16T04:10:54.092Z,88.47
2023-03-16T04:13:23.059Z,88.70
2023-03-16T04:15:54.270Z,87.55
2023-03-16T04:18:22.044Z,87.84
2023-03-16T04:20:49.800Z,86.65
2023-03-16T04:23:17.483Z,86.59
2023-03-16T04:25:45.401Z,85.99
2023-03-16T04:28:13.264Z,86.25
2023-03-16T04:30:42.889Z,85.81
2023-03-16T04:33:10.667Z,85.72
2023-03-16T04:35:39.503Z,85.10
2023-03-16T04:38:08.017Z,86.07
2023-03-16T04:40:35.779Z,85.36
2023-03-16T04:43:03.421Z,83.87
2023-03-16T04:45:32.323Z,83.74
2023-03-16T04:48:01.381Z,83.18
2023-03-16T04:50:29.185Z,82.26
2023-03-16T04:52:57.248Z,82.96
2023-03-16T04:55:24.813Z,82.70
2023-03-16T04:57:52.961Z,83.91
2023-03-16T05:00:21.688Z,86.11
2023-03-16T05:02:50.393Z,87.29
2023-03-16T05:05:20.234Z,86.53
2023-03-16T05:07:48.436Z,86.03
2023-03-16T05:10:18.788Z,85.31
2023-03-16T05:12:46.649Z,85.00
2023-03-16T05:15:14.887Z,85.15
2023-03-16T05:17:43.006Z,83.07
2023-03-16T05:20:15.847Z,82.80
2023-03-16T05:22:48.118Z,83.21
2023-03-16T05:25:17.436Z,83.25
2023-03-16T05:27:46.667Z,82.94
2023-03-16T05:30:16.243Z,83.15
2023-03-16T05:32:44.640Z,83.29
2023-03-16T05:35:13.612Z,83.54
2023-03-16T05:37:41.564Z,84.03
2023-03-16T05:40:16.832Z,84.84
2023-03-16T05:42:45.897Z,84.58
2023-03-16T05:45:15.603Z,84.61
2023-03-16T05:47:43.867Z,85.33
2023-03-16T05:50:13.032Z,85.83
2023-03-16T05:52:41.662Z,85.92
2023-03-16T05:55:12.077Z,85.59
2023-03-16T05:57:39.788Z,85.83
2023-03-16T06:00:15.401Z,87.18
2023-03-16T06:02:43.621Z,87.14
2023-03-16T06:05:12.037Z,88.13
2023-03-16T06:07:39.843Z,88.29
2023-03-16T06:10:08.461Z,88.61
2023-03-16T06:12:37.390Z,88.95
2023-03-16T06:15:07.261Z,88.81
2023-03-16T06:17:35.072Z,88.78
2023-03-16T06:20:02.808Z,89.07
2023-03-16T06:22:31.038Z,89.39
2023-03-16T06:24:58.668Z,89.34
2023-03-16T06:27:26.519Z,89.10
2023-03-16T06:29:55.655Z,88.85
2023-03-16T06:32:23.504Z,89.07
2023-03-16T06:34:51.351Z,89.66
2023-03-16T06:37:19.779Z,90.27
2023-03-16T06:39:47.526Z,90.08
2023-03-16T06:42:15.514Z,89.68
2023-03-16T06:44:43.619Z,89.42
2023-03-16T06:47:12.853Z,89.52
2023-03-16T06:49:40.773Z,88.94
2023-03-16T06:52:10.475Z,89.37
2023-03-16T06:54:38.117Z,89.34
2023-03-16T06:57:05.908Z,89.08
2023-03-16T06:59:34.463Z,88.90
2023-03-16T07:02:02.393Z,88.52
2023-03-16T07:04:31.665Z,88.10
2023-03-16T07:06:59.593Z,87.91
2023-03-16T07:09:28.400Z,87.56
2023-03-16T07:11:56.010Z,87.68
2023-03-16T07:14:26.091Z,88.86
2023-03-16T07:16:53.859Z,87.93
2023-03-16T07:19:22.503Z,87.62
2023-03-16T07:21:51.567Z,87.37
2023-03-16T07:24:19.241Z,86.59
2023-03-16T07:26:47.286Z,86.15
2023-03-16T07:29:16.975Z,85.54
2023-03-16T07:31:44.737Z,85.67
2023-03-16T07:34:12.642Z,84.58
2023-03-16T07:36:40.337Z,84.00
2023-03-16T07:39:09.769Z,83.48
2023-03-16T07:41:37.441Z,82.55
2023-03-16T07:44:05.417Z,82.15
2023-03-16T07:46:35.816Z,81.05
2023-03-16T07:49:04.665Z,79.53
2023-03-16T07:51:32.395Z,79.54
2023-03-16T07:54:00.125Z,78.18
2023-03-16T07:56:39.039Z,78.28
2023-03-16T07:59:13.750Z,79.50
2023-03-16T08:01:41.440Z,79.71
2023-03-16T08:04:09.160Z,78.90
2023-03-16T08:06:36.837Z,77.56
2023-03-16T08:09:05.752Z,75.80
2023-03-16T08:11:36.182Z,74.86
2023-03-16T08:14:05.626Z,73.68
2023-03-16T08:16:33.466Z,74.94
2023-03-16T08:19:01.277Z,74.01
2023-03-16T08:21:30.217Z,73.46
2023-03-16T08:23:57.870Z,70.35
2023-03-16T08:26:27.281Z,68.93
2023-03-16T08:28:56.293Z,65.86
2023-03-16T08:31:25.274Z,65.90
2023-03-16T08:33:54.050Z,64.66
2023-03-16T08:36:22.144Z,63.16
2023-03-16T08:39:06.164Z,61.12
2023-03-16T08:41:35.203Z,60.85
2023-03-16T08:44:04.562Z,60.10
2023-03-16T08:46:32.357Z,59.73
2023-03-16T08:48:59.963Z,59.26
2023-03-16T08:51:29.416Z,60.56
2023-03-16T08:53:57.325Z,59.34
2023-03-16T08:56:25.024Z,59.18
2023-03-16T08:58:53.050Z,58.06
2023-03-16T09:01:22.212Z,57.76
2023-03-16T09:03:51.288Z,56.30
2023-03-16T09:06:19.920Z,56.17
2023-03-16T09:08:47.867Z,56.01
2023-03-16T09:11:18.675Z,55.47
2023-03-16T09:13:47.244Z,54.16
2023-03-16T09:16:16.237Z,53.98
2023-03-16T09:18:45.523Z,54.19
2023-03-16T09:21:14.046Z,53.36
2023-03-16T09:23:42.964Z,53.18
2023-03-16T09:26:12.718Z,52.70
2023-03-16T09:28:42.451Z,52.59
2023-03-16T09:31:11.611Z,52.46
2023-03-16T09:33:39.936Z,51.11
2023-03-16T09:36:11.422Z,51.64
2023-03-16T09:38:39.447Z,50.98
2023-03-16T09:41:10.605Z,50.31
2023-03-16T09:43:56.684Z,49.40
2023-03-16T09:46:29.004Z,49.27
2023-03-16T09:48:58.005Z,48.91
2023-03-16T09:51:39.563Z,49.35
2023-03-16T09:54:18.174Z,49.43
2023-03-16T09:56:46.902Z,48.66
2023-03-16T09:59:17.374Z,48.37
2023-03-16T10:01:59.823Z,47.20
2023-03-16T10:04:46.262Z,46.84
2023-03-16T10:07:23.977Z,47.01
2023-03-16T10:09:57.964Z,47.85
2023-03-16T10:12:31.935Z,46.13
2023-03-16T10:15:06.723Z,46.85
2023-03-16T10:17:41.000Z,46.95
2023-03-16T10:20:17.410Z,46.55
2023-03-16T10:22:48.287Z,46.06
2023-03-16T10:25:23.252Z,46.63
2023-03-16T10:27:51.638Z,46.58
2023-03-16T10:30:28.220Z,45.95
2023-03-16T10:32:57.548Z,46.38
2023-03-16T10:35:41.580Z,46.76
2023-03-16T10:38:28.004Z,45.90
2023-03-16T10:40:57.817Z,46.06
2023-03-16T10:43:25.871Z,45.77
2023-03-16T10:46:02.082Z,45.75
2023-03-16T10:48:34.163Z,45.21
2023-03-16T10:51:06.417Z,44.91
2023-03-16T10:53:38.362Z,44.39
2023-03-16T10:56:13.390Z,44.76
2023-03-16T10:58:43.646Z,45.25
2023-03-16T11:01:13.605Z,44.64
2023-03-16T11:03:42.420Z,45.29
2023-03-16T11:06:22.793Z,45.29
2023-03-16T11:08:53.980Z,44.74
2023-03-16T11:11:27.983Z,44.84
2023-03-16T11:14:00.092Z,44.41
2023-03-16T11:16:34.345Z,44.47
2023-03-16T11:19:11.130Z,45.05
2023-03-16T11:21:46.453Z,45.40
2023-03-16T11:24:22.998Z,44.52
2023-03-16T11:26:55.554Z,43.73
2023-03-16T11:29:28.372Z,43.65
2023-03-16T11:31:59.777Z,43.68
2023-03-16T11:34:30.540Z,42.91
2023-03-16T11:37:06.283Z,42.88
2023-03-16T11:39:45.425Z,43.62
2023-03-16T11:42:28.411Z,43.95
2023-03-16T11:45:01.630Z,43.77
2023-03-16T11:48:04.892Z,42.84
2023-03-16T11:50:38.400Z,43.36
2023-03-16T11:53:15.913Z,43.76
2023-03-16T11:55:55.608Z,43.68
2023-03-16T11:58:37.444Z,43.70
2023-03-16T12:01:13.206Z,43.46
2023-03-16T12:03:58.283Z,42.31
2023-03-16T12:06:39.278Z,42.45
2023-03-16T12:09:37.657Z,42.94
2023-03-16T12:12:23.293Z,42.92
2023-03-16T12:15:00.022Z,43.56
2023-03-16T12:17:32.159Z,42.53
2023-03-16T12:20:05.885Z,41.87
2023-03-16T12:22:37.280Z,41.60
2023-03-16T12:25:14.712Z,40.41
2023-03-16T12:27:46.280Z,40.21
2023-03-16T12:30:25.749Z,40.58
2023-03-16T12:33:00.679Z,40.03
2023-03-16T12:35:37.848Z,40.76
2023-03-16T12:38:37.678Z,40.32
2023-03-16T12:41:17.930Z,40.46
2023-03-16T12:43:57.278Z,39.60
2023-03-16T12:46:32.487Z,39.19
2023-03-16T12:49:02.969Z,38.80
2023-03-16T12:51:35.322Z,40.00
2023-03-16T12:54:04.038Z,40.36
2023-03-16T12:56:33.433Z,40.58
2023-03-16T12:59:05.633Z,42.72
2023-03-16T13:01:39.248Z,42.90
2023-03-16T13:04:13.462Z,43.02
2023-03-16T13:06:45.280Z,42.71
2023-03-16T13:09:18.431Z,42.83
2023-03-16T13:11:50.897Z,42.98
2023-03-16T13:14:38.127Z,42.01
2023-03-16T13:17:22.854Z,40.25
2023-03-16T13:20:04.022Z,40.49
2023-03-16T13:22:33.247Z,37.58
2023-03-16T13:25:15.489Z,36.76
2023-03-16T13:27:47.111Z,36.39
2023-03-16T13:30:21.051Z,35.07
2023-03-16T13:32:49.674Z,34.62
2023-03-16T13:35:18.937Z,34.84
2023-03-16T13:37:48.146Z,35.67
2023-03-16T13:40:20.101Z,36.11
2023-03-16T13:42:52.709Z,36.85
2023-03-16T13:45:24.128Z,37.11
2023-03-16T13:47:53.249Z,36.81
2023-03-16T13:50:23.554Z,37.52
2023-03-16T13:52:58.639Z,38.19
2023-03-16T13:55:32.229Z,38.13
2023-03-16T13:58:01.687Z,38.17
2023-03-16T14:00:34.575Z,38.37
2023-03-16T14:03:16.223Z,38.47
2023-03-16T14:05:46.276Z,38.34
2023-03-16T14:08:17.438Z,38.36
2023-03-16T14:10:46.757Z,38.66
2023-03-16T14:13:27.518Z,38.92
2023-03-16T14:15:59.123Z,38.47
2023-03-16T14:18:33.616Z,38.96
2023-03-16T14:21:06.436Z,38.62
2023-03-16T14:23:39.023Z,38.85
2023-03-16T14:26:12.550Z,38.52
2023-03-16T14:28:41.517Z,38.51
2023-03-16T14:31:13.841Z,39.03
2023-03-16T14:33:45.953Z,39.28
2023-03-16T14:36:15.382Z,39.85
2023-03-16T14:38:45.293Z,39.80
2023-03-16T14:41:21.579Z,40.49
2023-03-16T14:43:51.656Z,40.38
2023-03-16T14:46:28.716Z,40.29
2023-03-16T14:49:05.182Z,40.67
2023-03-16T14:51:33.763Z,41.05
2023-03-16T14:54:01.604Z,41.19
2023-03-16T14:56:34.850Z,41.25
2023-03-16T14:59:02.726Z,40.51
2023-03-16T15:01:32.316Z,40.92
2023-03-16T15:03:59.977Z,41.22
2023-03-16T15:06:27.666Z,41.85
2023-03-16T15:08:55.421Z,42.23
2023-03-16T15:11:24.533Z,42.08
2023-03-16T15:14:04.206Z,41.64
2023-03-16T15:16:34.357Z,41.34
2023-03-16T15:19:02.094Z,41.12
2023-03-16T15:21:32.817Z,41.75
2023-03-16T15:24:00.930Z,42.00
2023-03-16T15:26:30.574Z,41.49
2023-03-16T15:28:58.532Z,41.62
2023-03-16T15:31:26.906Z,42.33
2023-03-16T15:33:56.071Z,41.44
2023-03-16T15:36:26.632Z,42.07
2023-03-16T15:38:55.536Z,41.81
2023-03-16T15:41:24.937Z,41.33
2023-03-16T15:44:00.496Z,41.88
2023-03-16T15:46:28.868Z,40.99
2023-03-16T15:48:57.834Z,41.45
2023-03-16T15:51:29.869Z,41.83
2023-03-16T15:54:00.055Z,41.96
2023-03-16T15:56:30.893Z,42.73
2023-03-16T15:59:02.028Z,42.58
2023-03-16T16:01:32.010Z,43.11
2023-03-16T16:04:01.190Z,43.28
2023-03-16T16:06:30.333Z,43.40
2023-03-16T16:08:58.036Z,42.70
2023-03-16T16:11:27.982Z,43.15
2023-03-16T16:13:57.447Z,43.62
2023-03-16T16:16:29.151Z,43.50
2023-03-16T16:18:57.968Z,43.75
2023-03-16T16:21:30.855Z,43.79
2023-03-16T16:23:59.186Z,43.89
2023-03-16T16:26:45.491Z,44.20
2023-03-16T16:29:16.769Z,43.92
2023-03-16T16:31:45.787Z,43.96
2023-03-16T16:34:14.524Z,43.76
2023-03-16T16:36:44.740Z,42.73
2023-03-16T16:39:12.713Z,42.23
2023-03-16T16:41:41.763Z,42.42
2023-03-16T16:44:18.012Z,42.41
2023-03-16T16:46:45.887Z,43.05
2023-03-16T16:49:17.350Z,41.30
2023-03-16T16:51:46.813Z,41.13
2023-03-16T16:54:17.530Z,40.64
2023-03-16T16:56:46.385Z,39.99
2023-03-16T16:59:18.070Z,40.67
2023-03-16T17:01:47.246Z,40.95
2023-03-16T17:04:17.465Z,40.27
2023-03-16T17:06:48.763Z,40.71
2023-03-16T17:09:16.361Z,41.04
2023-03-16T17:11:46.314Z,40.56
2023-03-16T17:14:17.942Z,40.71
2023-03-16T17:16:46.995Z,41.22
2023-03-16T17:19:19.641Z,40.84
2023-03-16T17:21:49.036Z,40.51
2023-03-16T17:24:17.335Z,41.35
2023-03-16T17:26:47.634Z,41.62
2023-03-16T17:29:21.004Z,41.07
2023-03-16T17:31:50.161Z,41.20
2023-03-16T17:34:20.370Z,41.42
2023-03-16T17:36:51.120Z,41.67
2023-03-16T17:39:23.762Z,41.58
2023-03-16T17:41:55.617Z,41.90
2023-03-16T17:44:23.513Z,41.73
2023-03-16T17:46:51.265Z,41.80
2023-03-16T17:49:19.953Z,42.37
2023-03-16T17:51:49.015Z,42.27
2023-03-16T17:54:16.822Z,42.43
2023-03-16T17:56:44.978Z,42.55
2023-03-16T17:59:17.404Z,42.94
2023-03-16T18:01:46.954Z,42.67
2023-03-16T18:04:17.894Z,43.34
2023-03-16T18:06:47.515Z,43.44
2023-03-16T18:09:17.115Z,43.76
2023-03-16T18:11:47.931Z,43.29
2023-03-16T18:14:35.700Z,44.11
2023-03-16T18:17:17.981Z,43.77
2023-03-16T18:19:46.885Z,44.14
2023-03-16T18:22:19.279Z,44.46
2023-03-16T18:24:49.638Z,44.70
2023-03-16T18:27:17.971Z,44.61
2023-03-16T18:29:46.898Z,44.51
2023-03-16T18:32:19.049Z,44.47
2023-03-16T18:34:47.372Z,44.69
2023-03-16T18:37:20.972Z,44.66
2023-03-16T18:39:51.716Z,44.98
2023-03-16T18:42:21.748Z,45.58
2023-03-16T18:44:49.728Z,45.26
2023-03-16T18:47:20.960Z,45.54
2023-03-16T18:49:53.664Z,45.52
2023-03-16T18:52:24.457Z,45.58
2023-03-16T18:54:55.533Z,45.80
2023-03-16T18:57:25.463Z,45.77
2023-03-16T18:59:53.990Z,45.91
2023-03-16T19:02:37.748Z,46.34
2023-03-16T19:05:09.891Z,46.46
2023-03-16T19:07:39.802Z,46.12
2023-03-16T19:10:21.406Z,46.55
2023-03-16T19:12:49.399Z,46.33
2023-03-16T19:15:22.895Z,46.89
2023-03-16T19:17:51.392Z,46.36
2023-03-16T19:20:21.350Z,47.27
2023-03-16T19:22:51.925Z,47.13
2023-03-16T19:25:27.230Z,47.40
2023-03-16T19:27:55.684Z,46.85
2023-03-16T19:30:29.149Z,47.75
2023-03-16T19:32:58.900Z,47.79
2023-03-16T19:35:48.412Z,47.40
2023-03-16T19:38:18.140Z,47.65
2023-03-16T19:40:52.856Z,47.99
2023-03-16T19:43:22.213Z,47.81
2023-03-16T19:45:50.814Z,48.04
2023-03-16T19:48:22.523Z,48.36
2023-03-16T19:50:52.820Z,48.59
2023-03-16T19:53:24.363Z,48.25
2023-03-16T19:55:54.529Z,48.77
2023-03-16T19:58:30.203Z,49.17
2023-03-16T20:00:58.799Z,48.95
2023-03-16T20:03:27.468Z,48.99
2023-03-16T20:05:55.658Z,49.45
2023-03-16T20:08:25.683Z,49.15
2023-03-16T20:10:57.486Z,49.53
2023-03-16T20:13:26.213Z,49.56
2023-03-16T20:15:54.255Z,49.25
2023-03-16T20:18:24.708Z,49.69
2023-03-16T20:20:53.045Z,49.38
2023-03-16T20:23:24.448Z,49.85
2023-03-16T20:25:54.389Z,49.62
2023-03-16T20:28:26.019Z,49.43
2023-03-16T20:30:54.959Z,49.95
2023-03-16T20:33:24.256Z,49.76
2023-03-16T20:35:54.730Z,50.29
2023-03-16T20:38:23.810Z,50.43
2023-03-16T20:40:56.582Z,50.49
2023-03-16T20:43:29.366Z,50.63
2023-03-16T20:46:00.032Z,50.51
2023-03-16T20:48:29.186Z,50.83
2023-03-16T20:50:59.902Z,50.74
2023-03-16T20:53:30.785Z,50.79
2023-03-16T20:55:59.010Z,50.94
2023-03-16T20:58:28.834Z,51.37
2023-03-16T21:00:58.212Z,50.57
2023-03-16T21:03:28.446Z,51.32
2023-03-16T21:06:00.013Z,51.69
2023-03-16T21:08:28.497Z,51.89
2023-03-16T21:10:59.484Z,51.68
2023-03-16T21:13:31.288Z,52.32
2023-03-16T21:16:01.396Z,52.07
2023-03-16T21:18:31.330Z,52.48
2023-03-16T21:20:59.042Z,52.21
2023-03-16T21:23:26.789Z,53.02
2023-03-16T21:25:56.775Z,52.82
2023-03-16T21:28:26.321Z,52.82
2023-03-16T21:30:57.344Z,52.83
2023-03-16T21:33:30.052Z,53.31
2023-03-16T21:35:58.515Z,53.88
2023-03-16T21:38:29.115Z,53.51
2023-03-16T21:40:57.151Z,54.14
2023-03-16T21:43:25.287Z,54.27
2023-03-16T21:45:54.000Z,54.52
2023-03-16T21:48:26.605Z,54.65
2023-03-16T21:50:54.852Z,54.97
2023-03-16T21:53:24.274Z,54.77
2023-03-16T21:55:53.322Z,54.97
2023-03-16T21:58:22.169Z,55.51
2023-03-16T22:00:51.041Z,55.05
2023-03-16T22:03:25.904Z,55.90
2023-03-16T22:05:54.175Z,55.75
2023-03-16T22:08:24.238Z,55.50
2023-03-16T22:10:52.984Z,56.83
2023-03-16T22:13:22.273Z,55.90
2023-03-16T22:15:52.749Z,56.52
2023-03-16T22:18:31.705Z,56.81
2023-03-16T22:21:00.800Z,57.16
2023-03-16T22:23:31.929Z,57.39
2023-03-16T22:25:59.703Z,57.14
2023-03-16T22:28:27.985Z,57.90
2023-03-16T22:30:58.413Z,57.33
2023-03-16T22:33:39.937Z,57.67
2023-03-16T22:36:11.735Z,57.12
2023-03-16T22:38:42.243Z,57.70
2023-03-16T22:41:14.679Z,58.17
2023-03-16T22:43:45.732Z,57.46
2023-03-16T22:46:20.609Z,57.96
2023-03-16T22:48:50.081Z,57.69
2023-03-16T22:51:24.074Z,58.66
2023-03-16T22:53:54.016Z,58.62
2023-03-16T22:56:21.712Z,58.73
2023-03-16T22:58:52.256Z,58.53
2023-03-16T23:01:22.993Z,58.45
2023-03-16T23:03:56.456Z,59.32
2023-03-16T23:06:26.500Z,58.75
2023-03-16T23:08:55.285Z,59.03
2023-03-16T23:11:25.050Z,59.19
2023-03-16T23:13:54.089Z,59.24
2023-03-16T23:16:23.871Z,59.12
2023-03-16T23:18:53.225Z,59.30
2023-03-16T23:21:23.552Z,59.17
2023-03-16T23:24:03.229Z,59.21
2023-03-16T23:26:32.753Z,59.79
2023-03-16T23:29:00.633Z,59.89
2023-03-16T23:31:28.549Z,60.01
2023-03-16T23:33:57.501Z,60.06
2023-03-16T23:36:27.116Z,59.59
2023-03-16T23:38:54.800Z,59.24
2023-03-16T23:41:25.215Z,59.42
2023-03-16T23:43:54.808Z,59.68
2023-03-16T23:46:24.625Z,59.56
2023-03-16T23:48:55.152Z,59.92
2023-03-16T23:51:27.202Z,60.07
2023-03-16T23:53:55.013Z,59.98
2023-03-16T23:56:23.056Z,59.95
2023-03-16T23:58:50.920Z,60.33
